Latest Weather Observations for St Lawrence

IDQ60801

Issued at 7:32 pm EST Tuesday 21 April 2015 (issued every 30 minutes, with the page automatically refreshed every 10 minutes)

About weather observations | Map of weather stations | Latest weather observations for QLD | Other Formats
Station Details ID: 033210 Name: ST LAWRENCE Lat: -22.35 Lon: 149.52 Height: 9.19 m
Data from the previous 72 hours. | See also: Recent months at St Lawrence
Date/Time
EST
Temp
°C
App
Temp
°C
Dew
Point
Rel
Hum
%
Delta-T
°C
Wind Press
QNH
hPa
Press
MSL
hPa
Rain
since 9 am
mm
Dir
 
Spd
km/h
Gust
km/h
Spd
kts
Gust
kts
21/07:30pm 18.0 15.4 5.9 45 5.9 S 9 13 5 7 1016.5 1016.4 0.0
21/07:00pm 19.1 16.7 5.2 40 6.8 S 7 9 4 5 1016.1 1016.0 0.0
21/06:30pm 20.4 18.1 5.6 38 7.3 SE 7 13 4 7 1015.7 1015.6 0.0
21/06:00pm 21.3 18.9 5.2 35 7.9 SSE 7 9 4 5 1015.3 1015.2 0.0
21/05:30pm 23.2 19.9 4.7 30 9.2 SSE 11 15 6 8 1015.2 1015.1 0.0
21/05:00pm 24.5 21.1 3.8 26 10.2 S 11 22 6 12 1014.8 1014.7 0.0
21/04:30pm 25.3 21.6 4.4 26 10.4 SSE 13 20 7 11 1014.5 1014.4 0.0
21/04:00pm 25.4 21.2 4.0 25 10.6 S 15 22 8 12 1014.4 1014.3 0.0
21/03:30pm 25.4 21.7 4.5 26 10.5 S 13 24 7 13 1014.3 1014.2 0.0
21/03:00pm 25.4 21.4 5.1 27 10.3 S 15 26 8 14 1014.3 1014.2 0.0
21/02:30pm 25.0 21.3 4.7 27 10.2 SSW 13 20 7 11 1014.6 1014.5 0.0
21/02:00pm 24.9 21.0 5.2 28 10.0 S 15 24 8 13 1014.9 1014.8 0.0
21/01:30pm 25.5 21.7 5.7 28 10.1 S 15 26 8 14 1015.3 1015.2 0.0
21/01:00pm 25.1 21.5 6.8 31 9.5 S 15 22 8 12 1015.8 1015.7 0.0
21/12:30pm 24.1 20.9 6.8 33 9.0 SSE 13 24 7 13 1016.2 1016.1 0.0
21/12:00pm 23.5 20.2 6.3 33 8.8 SSE 13 24 7 13 1016.9 1016.8 0.0
21/11:30am 22.9 18.9 6.6 35 8.4 S 17 24 9 13 1017.5 1017.4 0.0
21/11:00am 21.8 17.9 7.2 39 7.5 S 17 24 9 13 1018.3 1018.2 0.0
21/10:30am 21.4 17.5 6.9 39 7.4 SSW 17 26 9 14 1018.7 1018.7 0.0
21/10:00am 20.8 16.6 5.6 37 7.5 SSW 17 28 9 15 1018.9 1018.9 0.0
21/09:30am 19.8 15.5 5.1 38 7.2 S 17 32 9 17 1019.2 1019.2 0.0
21/09:00am 19.7 15.4 5.4 39 7.0 S 17 30 9 16 1019.3 1019.3 0.0
21/08:30am 18.6 13.9 5.1 41 6.5 S 19 28 10 15 1019.3 1019.3 0.0
21/08:00am 18.1 13.9 5.7 44 6.0 SSW 17 30 9 16 1019.2 1019.2 0.0
21/07:30am 17.3 14.0 6.2 48 5.4 S 13 22 7 12 1019.2 1019.2 0.0
21/07:00am 15.8 12.9 6.3 53 4.6 SSW 11 17 6 9 1018.9 1018.9 0.0
21/06:30am 15.3 12.3 5.8 53 4.5 SSW 11 17 6 9 1018.6 1018.5 0.0
21/06:00am 15.6 12.9 5.5 51 4.8 SSW 9 17 5 9 1018.4 1018.3 0.0
21/05:30am 15.9 12.8 5.5 50 5.0 SSW 11 17 6 9 1018.5 1018.4 0.0
21/05:00am 15.8 12.4 5.7 51 4.8 SSW 13 19 7 10 1018.2 1018.1 0.0
21/04:30am 16.0 13.0 5.9 51 4.9 SSW 11 19 6 10 1018.1 1018.0 0.0
21/04:00am 16.1 12.7 6.0 51 4.9 SSW 13 20 7 11 1018.0 1017.9 0.0
21/03:30am 16.2 13.2 6.1 51 4.9 SSW 11 20 6 11 1017.7 1017.6 0.0
21/03:00am 16.5 13.2 6.3 51 5.0 SSW 13 22 7 12 1017.6 1017.5 0.0
21/02:30am 16.8 13.2 6.9 52 4.9 S 15 26 8 14 1017.6 1017.5 0.0
21/02:00am 17.0 13.2 7.4 53 4.8 S 17 30 9 16 1018.0 1017.9 0.0
21/01:30am 17.3 14.0 8.2 55 4.6 S 15 24 8 13 1018.1 1018.0 0.0
21/01:00am 17.7 14.2 8.8 56 4.6 S 17 24 9 13 1018.7 1018.7 0.0
21/12:30am 17.8 14.5 9.7 59 4.3 S 17 30 9 16 1018.5 1018.4 0.0
 
Date/Time
EST
Temp
°C
App
Temp
°C
Dew
Point
Rel
Hum
%
Delta-T
°C
Wind Press
QNH
hPa
Press
MSL
hPa
Rain
since 9 am
mm
Dir
 
Spd
km/h
Gust
km/h
Spd
kts
Gust
kts
20/11:30pm 17.8 16.1 12.3 70 3.0 SSW 13 22 7 12 1018.5 1018.4 0.0
20/11:00pm 17.8 15.6 12.0 69 3.2 S 15 22 8 12 1018.2 1018.1 0.0
20/10:30pm 18.1 15.6 12.3 69 3.2 S 17 28 9 15 1018.5 1018.4 0.0
20/10:00pm 18.3 17.0 13.8 75 2.6 S 13 17 7 9 1018.8 1018.8 0.0
20/09:30pm 18.3 17.0 13.8 75 2.6 S 13 19 7 10 1018.9 1018.9 0.0
20/09:00pm 18.6 16.7 14.1 75 2.6 S 17 24 9 13 1018.6 1018.5 0.0
20/08:30pm 18.8 16.4 14.3 75 2.6 S 20 30 11 16 1018.7 1018.7 0.0
20/08:00pm 19.6 17.9 14.8 74 2.8 S 17 30 9 16 1018.5 1018.4 0.0
20/07:30pm 20.1 18.8 15.9 77 2.5 SSE 17 28 9 15 1018.2 1018.1 0.0
20/07:00pm 20.6 19.9 16.4 77 2.5 SSE 15 28 8 15 1017.6 1017.5 0.0
20/06:30pm 21.4 21.2 16.6 74 2.9 S 13 20 7 11 1017.3 1017.2 0.0
20/06:00pm 21.7 21.2 16.9 74 2.9 S 15 26 8 14 1016.8 1016.7 0.0
20/05:30pm 21.9 21.2 16.4 71 3.3 SSE 15 22 8 12 1016.3 1016.2 0.0
20/05:00pm 23.2 22.7 16.0 64 4.4 S 13 20 7 11 1016.1 1016.0 0.0
20/04:30pm 24.2 23.0 15.1 56 5.4 SW 15 24 8 13 1016.0 1015.9 0.0
20/04:00pm 24.9 24.5 16.3 59 5.3 SSW 13 24 7 13 1015.7 1015.6 0.0
20/03:30pm 25.3 24.1 17.0 60 5.1 S 19 30 10 16 1015.4 1015.3 0.0
20/03:00pm 25.1 24.0 17.3 62 4.9 S 19 26 10 14 1015.2 1015.1 0.0
20/02:30pm 24.7 23.4 17.2 63 4.7 S 20 33 11 18 1015.2 1015.1 0.0
20/02:00pm 26.3 25.6 18.2 61 5.1 S 19 32 10 17 1015.3 1015.2 0.0
20/01:30pm 26.4 25.3 17.7 58 5.5 S 20 30 11 16 1015.2 1015.1 0.0
20/01:00pm 27.4 26.9 18.7 59 5.6 S 19 32 10 17 1016.0 1015.9 0.0
20/12:30pm 26.9 26.2 18.7 60 5.2 S 20 32 11 17 1016.5 1016.4 0.0
20/12:00pm 25.9 25.1 18.1 62 4.9 SSE 19 28 10 15 1016.8 1016.7 0.0
20/11:30am 26.3 26.2 18.7 63 4.9 S 17 32 9 17 1017.5 1017.4 0.0
20/11:00am 25.6 24.9 18.3 64 4.6 S 19 30 10 16 1017.8 1017.7 0.0
20/10:30am 25.8 25.2 18.5 64 4.6 S 19 30 10 16 1018.0 1017.9 0.0
20/10:00am 25.0 24.1 18.2 66 4.3 S 20 32 11 17 1018.0 1017.9 0.0
20/09:30am 24.8 23.6 18.5 68 4.0 S 22 33 12 18 1017.9 1017.8 0.0
20/09:00am 24.8 24.1 18.7 69 3.9 S 20 32 11 17 1017.8 1017.7 0.0
20/08:30am 24.7 24.7 18.9 70 3.7 S 17 30 9 16 1017.4 1017.3 0.0
20/08:00am 23.6 24.0 19.1 76 2.9 S 15 24 8 13 1017.3 1017.2 0.0
20/07:30am 22.6 23.7 18.8 79 2.4 S 11 17 6 9 1017.2 1017.1 0.0
20/07:00am 22.2 22.9 18.8 81 2.1 S 13 17 7 9 1016.9 1016.8 0.0
20/06:30am 22.3 23.0 18.9 81 2.1 S 13 19 7 10 1016.3 1016.2 0.0
20/06:00am 22.1 23.9 19.5 85 1.7 S 9 17 5 9 1015.9 1015.8 0.0
20/05:30am 22.4 24.6 19.6 84 1.8 SSE 7 13 4 7 1015.7 1015.6 0.0
20/05:00am 22.1 24.3 19.5 85 1.7 S 7 11 4 6 1015.8 1015.7 0.0
20/04:30am 22.0 23.3 19.4 85 1.7 S 11 13 6 7 1015.8 1015.7 0.0
20/04:00am 21.9 23.3 19.5 86 1.5 S 11 17 6 9 1015.7 1015.6 0.0
20/03:30am 21.8 23.2 19.5 87 1.5 S 11 17 6 9 1015.8 1015.7 0.0
20/03:00am 21.7 23.5 19.6 88 1.3 S 9 15 5 8 1015.9 1015.8 0.0
20/02:30am 21.7 23.6 19.8 89 1.2 S 9 13 5 7 1016.1 1016.0 0.0
20/02:00am 21.7 23.7 20.0 90 1.1 S 9 13 5 7 1016.4 1016.3 0.0
20/01:30am 21.8 23.9 20.1 90 1.1 SSE 9 11 5 6 1016.4 1016.3 0.0
20/01:00am 21.3 23.8 19.9 92 0.9 S 6 9 3 5 1016.9 1016.8 0.0
20/12:30am 21.0 23.6 19.3 90 1.1 S 4 7 2 4 1017.1 1017.0 0.0
20/12:00am 21.5 24.1 20.1 92 0.9 SSW 6 9 3 5 1017.4 1017.3 0.0
 
Date/Time
EST
Temp
°C
App
Temp
°C
Dew
Point
Rel
Hum
%
Delta-T
°C
Wind Press
QNH
hPa
Press
MSL
hPa
Rain
since 9 am
mm
Dir
 
Spd
km/h
Gust
km/h
Spd
kts
Gust
kts
19/11:30pm 21.1 23.0 19.7 92 0.9 WSW 9 11 5 6 1017.5 1017.4 0.0
19/11:00pm 21.4 25.0 19.7 90 1.1 CALM 0 0 0 0 1017.4 1017.3 0.0
19/10:30pm 21.7 25.3 19.8 89 1.2 CALM 0 0 0 0 1017.2 1017.1 0.0
19/10:00pm 22.0 25.8 20.1 89 1.2 CALM 0 0 0 0 1017.1 1017.0 0.0
19/09:30pm 22.3 26.1 20.2 88 1.4 CALM 0 0 0 0 1017.1 1017.0 0.0
19/09:00pm 22.7 26.6 20.4 87 1.5 CALM 0 0 0 0 1016.7 1016.6 0.0
19/08:30pm 23.1 27.1 20.6 86 1.6 CALM 0 0 0 0 1016.8 1016.7 0.0
19/08:00pm 23.4 27.4 20.5 84 1.9 CALM 0 0 0 0 1016.5 1016.4 0.0
19/07:30pm 24.2 28.4 20.9 82 2.2 CALM 0 0 0 0 1016.4 1016.3 0.0
19/07:00pm 24.6 27.5 21.1 81 2.3 NE 7 9 4 5 1016.0 1015.9 0.0
19/06:30pm 25.0 28.0 20.9 78 2.7 NNE 6 9 3 5 1015.7 1015.6 0.0
19/06:00pm 25.6 27.6 20.8 75 3.2 NNE 11 15 6 8 1015.6 1015.5 0.0
19/05:30pm 26.2 27.6 20.3 70 3.9 NNE 13 17 7 9 1015.2 1015.1 0.0
19/05:00pm 26.9 28.1 20.0 66 4.5 NNE 13 19 7 10 1015.0 1014.9 0.0
19/04:30pm 27.5 28.8 20.1 64 4.8 NNE 13 17 7 9 1014.8 1014.7 0.0
19/04:00pm 28.0 29.2 20.0 61 5.2 NE 13 17 7 9 1014.6 1014.5 0.0
19/03:30pm 29.0 29.3 18.7 53 6.6 NNE 15 20 8 11 1014.5 1014.4 0.0
19/03:00pm 28.7 30.0 19.3 56 6.1 NE 11 13 6 7 1014.6 1014.5 0.0
19/02:30pm 28.3 28.8 18.4 55 6.3 NNE 13 17 7 9 1015.0 1014.9 0.0
19/02:00pm 28.5 28.9 18.9 56 6.2 NNE 15 19 8 10 1015.1 1015.0 0.0
19/01:30pm 29.0 28.4 18.4 52 6.8 NNE 19 24 10 13 1015.2 1015.1 0.0
19/01:00pm 29.8 31.2 18.6 51 7.2 NE 9 17 5 9 1015.8 1015.7 0.0
19/12:30pm 29.8 31.4 19.2 53 6.9 NE 9 13 5 7 1016.3 1016.2 0.0
19/12:00pm 29.2 31.4 20.4 59 5.8 NE 9 15 5 8 1017.1 1017.0 0.0
19/11:30am 28.5 30.2 19.4 57 5.9 N 9 15 5 8 1017.7 1017.6 0.0
19/11:00am 28.8 30.8 20.8 62 5.3 NNE 11 15 6 8 1018.1 1018.0 0.0
19/10:30am 27.1 29.3 19.7 64 4.8 ENE 7 13 4 7 1018.4 1018.3 0.0
19/10:00am 27.5 29.7 20.3 65 4.7 ENE 9 13 5 7 1018.6 1018.5 0.0
19/09:30am 26.1 28.7 20.0 69 4.0 ESE 6 13 3 7 1018.6 1018.5 0.0
19/09:00am 25.1 27.9 20.8 77 2.8 SSW 7 13 4 7 1018.5 1018.4 0.2
19/08:30am 23.8 26.1 20.7 83 2.0 S 9 13 5 7 1018.3 1018.2 0.2
19/08:00am 23.2 25.1 20.5 85 1.8 S 11 15 6 8 1018.3 1018.2 0.2
19/07:30am 22.1 23.6 19.8 87 1.5 S 11 13 6 7 1017.8 1017.7 0.2
19/07:00am 21.2 23.1 19.7 91 1.0 S 9 13 5 7 1017.5 1017.4 0.2
19/06:30am 20.6 22.3 19.4 93 0.8 SSE 9 13 5 7 1017.1 1017.0 0.2
19/06:00am 20.3 21.9 19.1 93 0.8 SSE 9 13 5 7 1017.0 1016.9 0.2
19/05:30am 20.0 21.8 18.8 93 0.8 S 7 11 4 6 1016.8 1016.7 0.2
19/05:00am 20.1 21.7 19.1 94 0.6 S 9 13 5 7 1016.7 1016.6 0.2
19/04:30am 19.7 21.6 18.5 93 0.7 SSW 6 7 3 4 1016.4 1016.3 0.2
19/04:00am 20.4 23.0 19.2 93 0.8 SSE 4 6 2 3 1016.2 1016.1 0.2
19/03:30am 20.4 22.5 18.9 91 0.9 S 6 9 3 5 1016.2 1016.1 0.2
19/03:00am 21.2 23.4 19.5 90 1.1 SSE 7 11 4 6 1016.3 1016.2 0.2
19/02:30am 21.5 23.4 19.8 90 1.1 SSE 9 13 5 7 1016.6 1016.5 0.2
19/02:00am 21.3 23.4 19.4 89 1.2 S 7 11 4 6 1016.9 1016.8 0.2
19/01:30am 21.4 23.6 19.5 89 1.2 S 7 9 4 5 1017.4 1017.3 0.2
19/01:00am 21.4 23.6 19.5 89 1.2 SSE 7 9 4 5 1017.7 1017.6 0.2
19/12:30am 21.5 23.7 19.6 89 1.2 S 7 9 4 5 1018.0 1017.9 0.2
19/12:00am 21.6 23.5 19.7 89 1.2 S 9 11 5 6 1018.0 1017.9 0.2
 
Date/Time
EST
Temp
°C
App
Temp
°C
Dew
Point
Rel
Hum
%
Delta-T
°C
Wind Press
QNH
hPa
Press
MSL
hPa
Rain
since 9 am
mm
Dir
 
Spd
km/h
Gust
km/h
Spd
kts
Gust
kts
18/11:30pm 22.0 24.3 19.9 88 1.3 S 7 9 4 5 1018.1 1018.0 0.2
18/11:00pm 22.7 25.2 20.2 86 1.6 SE 7 11 4 6 1018.2 1018.1 0.2
18/10:30pm 22.9 25.4 20.2 85 1.7 SSE 7 9 4 5 1018.3 1018.2 0.2
18/10:00pm 23.5 26.3 20.4 83 2.0 SSE 6 7 3 4 1018.5 1018.4 0.2
18/09:30pm 23.9 26.6 20.6 82 2.2 ESE 7 11 4 6 1018.4 1018.3 0.2
18/09:00pm 24.1 26.9 20.8 82 2.2 SE 7 11 4 6 1018.3 1018.2 0.2
18/08:30pm 24.2 27.0 20.5 80 2.4 ESE 6 7 3 4 1018.0 1017.9 0.2
18/08:00pm 24.6 27.3 20.3 77 2.8 E 6 9 3 5 1017.8 1017.7 0.2

Other Formats:

Comma delimited format used in spreadsheet applications
http://www.bom.gov.au/fwo/IDQ60801/IDQ60801.95369.axf

JavaScript Object Notation format (JSON) in row-major order
http://www.bom.gov.au/fwo/IDQ60801/IDQ60801.95369.json